< < Back
Terminal Aerodrome Forecast


Current Version              Previous Versions:   1  2  3  4  5  6  7  8  9  

Terminal Aerodrome Forecast

291
FTUS42 KCAE 261128
TAFCAE
TAF
KCAE 261128Z 2612/2712 VRB03KT P6SM SKC
     FM261700 10007KT P6SM SCT050 SCT250
     FM270100 VRB03KT P6SM FEW050 SCT250=

Latest METAR

151
SAUS80 KWBC 261700 CCA
MTRCAE
METAR KCAE 261656Z 08009KT 10SM FEW050 FEW130 35/21 A3008 RMK AO2 SLP182
T03500206


USA.gov is the U.S. government's official web portal to all federal, state and local government web resources and services.